createdAt,value
2022-10-26T00:03:35.186Z,99392.97
2022-10-26T00:09:37.085Z,99395.06
2022-10-26T00:15:42.873Z,99398.50
2022-10-26T00:21:44.809Z,99402.22
2022-10-26T00:27:46.939Z,99409.16
2022-10-26T00:33:56.511Z,99402.75
2022-10-26T00:39:58.362Z,99387.41
2022-10-26T00:46:01.736Z,99390.94
2022-10-26T00:52:04.311Z,99387.16
2022-10-26T00:58:08.750Z,99397.41
2022-10-26T01:04:12.527Z,99393.50
2022-10-26T01:10:15.174Z,99389.53
2022-10-26T01:16:48.338Z,99375.44
2022-10-26T01:23:26.286Z,99386.66
2022-10-26T01:29:59.678Z,99376.41
2022-10-26T01:36:16.912Z,99366.56
2022-10-26T01:42:21.703Z,99370.63
2022-10-26T01:48:25.918Z,99372.94
2022-10-26T01:54:28.749Z,99358.50
2022-10-26T02:00:34.544Z,99355.25
2022-10-26T02:07:04.124Z,99344.75
2022-10-26T02:13:33.857Z,99332.28
2022-10-26T02:19:45.658Z,99336.31
2022-10-26T02:25:54.151Z,99334.63
2022-10-26T02:31:57.210Z,99328.34
2022-10-26T02:38:03.241Z,99318.66
2022-10-26T02:44:16.736Z,99314.47
2022-10-26T02:50:24.048Z,99306.19
2022-10-26T02:57:04.888Z,99305.25
2022-10-26T03:03:06.924Z,99307.84
2022-10-26T03:09:08.794Z,99303.88
2022-10-26T03:15:10.944Z,99298.28
2022-10-26T03:21:12.827Z,99291.75
2022-10-26T03:27:15.524Z,99292.25
2022-10-26T03:33:17.582Z,99293.88
2022-10-26T03:45:44.050Z,99296.81
2022-10-26T03:51:45.973Z,99289.06
2022-10-26T03:57:48.090Z,99294.06
2022-10-26T04:03:50.092Z,99293.31
2022-10-26T04:09:52.197Z,99299.69
2022-10-26T04:15:54.159Z,99295.22
2022-10-26T04:21:56.173Z,99291.88
2022-10-26T04:27:58.509Z,99293.50
2022-10-26T04:34:00.497Z,99287.69
2022-10-26T04:40:03.468Z,99295.38
2022-10-26T04:46:05.626Z,99286.00
2022-10-26T04:52:07.689Z,99299.59
2022-10-26T04:58:09.585Z,99285.47
2022-10-26T05:04:11.719Z,99274.56
2022-10-26T05:10:13.958Z,99279.59
2022-10-26T05:16:15.842Z,99268.06
2022-10-26T05:22:17.778Z,99265.38
2022-10-26T05:28:19.751Z,99261.41
2022-10-26T05:34:21.659Z,99267.13
2022-10-26T05:40:24.030Z,99273.63
2022-10-26T05:47:09.708Z,99282.50
2022-10-26T05:53:12.025Z,99290.28
2022-10-26T05:59:18.993Z,99300.59
2022-10-26T06:05:27.729Z,99302.00
2022-10-26T06:11:30.163Z,99310.25
2022-10-26T06:18:09.998Z,99305.75
2022-10-26T06:24:56.858Z,99309.41
2022-10-26T06:30:58.917Z,99311.00
2022-10-26T06:37:02.417Z,99312.84
2022-10-26T06:43:30.165Z,99318.22
2022-10-26T06:49:34.685Z,99328.63
2022-10-26T06:55:45.463Z,99331.63
2022-10-26T07:01:47.519Z,99336.34
2022-10-26T07:07:50.031Z,99338.84
2022-10-26T07:13:52.172Z,99344.44
2022-10-26T07:19:54.956Z,99345.75
2022-10-26T07:26:00.398Z,99342.88
2022-10-26T07:32:02.475Z,99350.50
2022-10-26T07:38:05.045Z,99367.28
2022-10-26T07:44:08.345Z,99365.41
2022-10-26T07:50:12.114Z,99372.00
2022-10-26T07:56:14.364Z,99369.06
2022-10-26T08:02:16.322Z,99364.06
2022-10-26T08:09:21.013Z,99358.84
2022-10-26T08:15:22.907Z,99363.84
2022-10-26T08:21:36.194Z,99372.34
2022-10-26T08:27:41.330Z,99376.34
2022-10-26T08:48:12.152Z,99367.66
2022-10-26T08:54:44.352Z,99367.41
2022-10-26T09:00:50.116Z,99378.63
2022-10-26T09:07:36.789Z,99368.69
2022-10-26T09:14:15.619Z,99364.41
2022-10-26T09:27:44.336Z,99345.88
2022-10-26T09:34:29.755Z,99357.34
2022-10-26T09:41:00.096Z,99363.56
2022-10-26T09:47:31.199Z,99384.16
2022-10-26T09:53:33.625Z,99378.81
2022-10-26T10:00:01.730Z,99371.91
2022-10-26T10:06:25.731Z,99385.41
2022-10-26T10:12:27.755Z,99408.16
2022-10-26T10:18:30.091Z,99400.97
2022-10-26T10:31:22.285Z,99404.72
2022-10-26T10:37:46.035Z,99397.59
2022-10-26T10:43:55.540Z,99415.72
2022-10-26T10:50:07.419Z,99406.31
2022-10-26T10:56:12.105Z,99416.41
2022-10-26T11:02:59.551Z,99408.47
2022-10-26T11:09:21.558Z,99411.78
2022-10-26T11:28:40.541Z,99399.28
2022-10-26T11:35:43.869Z,99407.47
2022-10-26T11:41:47.319Z,99411.09
2022-10-26T11:48:21.102Z,99401.22
2022-10-26T11:54:59.078Z,99407.53
2022-10-26T12:01:12.076Z,99416.63
2022-10-26T12:21:20.356Z,99429.66
2022-10-26T12:27:40.364Z,99439.13
2022-10-26T12:33:51.967Z,99433.69
2022-10-26T12:40:04.314Z,99435.50
2022-10-26T12:46:15.537Z,99432.69
2022-10-26T12:59:36.138Z,99443.00
2022-10-26T13:05:43.761Z,99435.66
2022-10-26T13:11:53.674Z,99427.50
2022-10-26T13:18:12.377Z,99428.91
2022-10-26T13:24:15.025Z,99441.38
2022-10-26T13:30:37.254Z,99458.16
2022-10-26T13:36:56.701Z,99461.16
2022-10-26T13:43:04.373Z,99456.78
2022-10-26T13:49:42.164Z,99454.75
2022-10-26T13:56:04.657Z,99447.97
2022-10-26T14:02:45.480Z,99452.81
2022-10-26T14:08:50.567Z,99448.72
2022-10-26T14:14:53.692Z,99456.56
2022-10-26T14:21:20.285Z,99463.50
2022-10-26T14:27:26.405Z,99467.50
2022-10-26T14:33:29.263Z,99471.72
2022-10-26T14:39:44.132Z,99472.59
2022-10-26T14:45:50.533Z,99484.69
2022-10-26T14:52:06.642Z,99489.41
2022-10-26T14:58:36.906Z,99503.47
2022-10-26T15:05:17.470Z,99512.88
2022-10-26T15:11:19.495Z,99519.69
2022-10-26T15:17:32.135Z,99514.94
2022-10-26T15:23:39.263Z,99520.53
2022-10-26T15:29:46.285Z,99516.06
2022-10-26T15:35:48.174Z,99524.44
2022-10-26T15:41:52.369Z,99524.16
2022-10-26T15:47:57.556Z,99533.88
2022-10-26T16:00:17.439Z,99545.81
2022-10-26T16:06:34.666Z,99550.94
2022-10-26T16:13:01.911Z,99565.06
2022-10-26T16:19:30.259Z,99570.00
2022-10-26T16:25:58.698Z,99580.59
2022-10-26T16:32:00.673Z,99590.31
2022-10-26T16:38:02.724Z,99590.38
2022-10-26T16:44:13.130Z,99596.19
2022-10-26T16:50:15.707Z,99610.66
2022-10-26T16:56:22.399Z,99616.19
2022-10-26T17:02:24.845Z,99621.78
2022-10-26T17:08:28.147Z,99623.63
2022-10-26T17:14:37.200Z,99637.53
2022-10-26T17:20:41.520Z,99647.72
2022-10-26T17:26:43.806Z,99654.16
2022-10-26T17:32:46.767Z,99666.22
2022-10-26T17:38:51.894Z,99671.88
2022-10-26T17:45:00.009Z,99690.81
2022-10-26T17:51:05.990Z,99694.47
2022-10-26T17:57:08.139Z,99707.41
2022-10-26T18:03:10.096Z,99715.72
2022-10-26T18:09:12.023Z,99713.22
2022-10-26T18:15:15.062Z,99720.34
2022-10-26T18:21:22.059Z,99740.69
2022-10-26T18:27:24.894Z,99746.09
2022-10-26T18:33:27.092Z,99754.13
2022-10-26T18:39:29.124Z,99767.00
2022-10-26T18:45:36.008Z,99768.09
2022-10-26T18:51:40.739Z,99775.56
2022-10-26T18:57:42.664Z,99784.03
2022-10-26T19:03:45.815Z,99788.63
2022-10-26T19:09:47.751Z,99791.94
2022-10-26T19:16:12.696Z,99810.59
2022-10-26T19:22:23.727Z,99821.56
2022-10-26T19:28:25.668Z,99816.41
2022-10-26T19:34:27.668Z,99834.00
2022-10-26T19:40:29.683Z,99844.34
2022-10-26T19:46:34.501Z,99851.19
2022-10-26T19:52:36.527Z,99853.00
2022-10-26T19:58:38.994Z,99863.00
2022-10-26T20:04:40.930Z,99881.78
2022-10-26T20:10:54.753Z,99887.34
2022-10-26T20:16:56.652Z,99897.28
2022-10-26T20:22:58.714Z,99893.38
2022-10-26T20:29:02.474Z,99908.69
2022-10-26T20:35:05.012Z,99911.75
2022-10-26T20:41:12.261Z,99910.56
2022-10-26T20:47:14.662Z,99919.84
2022-10-26T20:53:40.209Z,99921.72
2022-10-26T20:59:50.277Z,99921.28
2022-10-26T21:05:52.560Z,99931.16
2022-10-26T21:18:04.411Z,99948.72
2022-10-26T21:31:03.704Z,99961.22
2022-10-26T21:37:10.107Z,99964.06
2022-10-26T21:43:12.913Z,99960.69
2022-10-26T21:49:14.783Z,99964.34
2022-10-26T21:55:17.214Z,99971.59
2022-10-26T22:01:29.440Z,99963.50
2022-10-26T22:07:31.589Z,99972.06
2022-10-26T22:13:33.570Z,99980.47
2022-10-26T22:19:35.721Z,99972.75
2022-10-26T22:25:37.615Z,99981.00
2022-10-26T22:31:40.815Z,99983.97
2022-10-26T22:37:45.862Z,99984.22
2022-10-26T22:43:48.004Z,99979.03
2022-10-26T22:49:49.924Z,99986.19
2022-10-26T22:55:51.847Z,99987.69
2022-10-26T23:01:53.970Z,99990.50
2022-10-26T23:07:56.092Z,100003.22
2022-10-26T23:14:00.953Z,100006.00
2022-10-26T23:20:02.875Z,100007.91
2022-10-26T23:26:14.451Z,100012.84
2022-10-26T23:32:16.439Z,100024.81
2022-10-26T23:38:18.886Z,100024.22
2022-10-26T23:44:20.780Z,100025.63
2022-10-26T23:50:22.713Z,100033.06
2022-10-26T23:56:24.926Z,100034.66
